sensor_id;sensor_type;location;lat;lon;timestamp;pressure;altitude;pressure_sealevel;temperature;humidity
23899;BME280;20544;50.018;20.010;2023-06-04T00:01:41;99236.02;;;9.32;100.00
23899;BME280;20544;50.018;20.010;2023-06-04T00:04:59;99229.06;;;9.31;100.00
23899;BME280;20544;50.018;20.010;2023-06-04T00:08:15;99233.08;;;9.51;100.00
23899;BME280;20544;50.018;20.010;2023-06-04T00:11:32;99226.47;;;9.64;100.00
23899;BME280;20544;50.018;20.010;2023-06-04T00:14:49;99224.98;;;9.78;100.00
23899;BME280;20544;50.018;20.010;2023-06-04T00:18:06;99226.79;;;9.85;100.00
23899;BME280;20544;50.018;20.010;2023-06-04T00:21:23;99226.63;;;9.95;100.00
23899;BME280;20544;50.018;20.010;2023-06-04T00:24:40;99228.11;;;9.98;100.00
23899;BME280;20544;50.018;20.010;2023-06-04T00:27:57;99218.00;;;10.01;100.00
23899;BME280;20544;50.018;20.010;2023-06-04T00:31:14;99218.18;;;10.08;100.00
23899;BME280;20544;50.018;20.010;2023-06-04T00:34:31;99216.34;;;10.09;100.00
23899;BME280;20544;50.018;20.010;2023-06-04T00:37:48;99211.86;;;10.09;100.00
23899;BME280;20544;50.018;20.010;2023-06-04T00:41:05;99211.54;;;10.04;100.00
23899;BME280;20544;50.018;20.010;2023-06-04T00:44:25;99212.39;;;10.04;100.00
23899;BME280;20544;50.018;20.010;2023-06-04T00:47:43;99207.09;;;10.04;100.00
23899;BME280;20544;50.018;20.010;2023-06-04T00:51:00;99201.61;;;9.98;100.00
23899;BME280;20544;50.018;20.010;2023-06-04T00:54:17;99197.16;;;9.90;100.00
23899;BME280;20544;50.018;20.010;2023-06-04T00:57:37;99208.42;;;9.92;100.00
23899;BME280;20544;50.018;20.010;2023-06-04T01:00:56;99208.25;;;9.94;100.00
23899;BME280;20544;50.018;20.010;2023-06-04T01:04:22;99220.02;;;9.99;100.00
23899;BME280;20544;50.018;20.010;2023-06-04T01:07:41;99207.08;;;9.96;100.00
23899;BME280;20544;50.018;20.010;2023-06-04T01:11:01;99207.60;;;9.83;100.00
23899;BME280;20544;50.018;20.010;2023-06-04T01:14:18;99206.27;;;9.87;100.00
23899;BME280;20544;50.018;20.010;2023-06-04T01:17:40;99209.75;;;9.80;100.00
23899;BME280;20544;50.018;20.010;2023-06-04T01:21:03;99213.56;;;9.77;100.00
23899;BME280;20544;50.018;20.010;2023-06-04T01:24:27;99213.06;;;9.74;100.00
23899;BME280;20544;50.018;20.010;2023-06-04T01:27:56;99216.70;;;9.73;100.00
23899;BME280;20544;50.018;20.010;2023-06-04T01:31:14;99206.28;;;9.54;100.00
23899;BME280;20544;50.018;20.010;2023-06-04T01:34:44;99209.91;;;9.62;100.00
23899;BME280;20544;50.018;20.010;2023-06-04T01:38:01;99209.25;;;9.51;100.00
23899;BME280;20544;50.018;20.010;2023-06-04T01:44:31;99208.23;;;9.44;100.00
23899;BME280;20544;50.018;20.010;2023-06-04T01:48:00;99211.88;;;9.43;100.00
23899;BME280;20544;50.018;20.010;2023-06-04T01:51:27;99209.23;;;9.43;100.00
23899;BME280;20544;50.018;20.010;2023-06-04T01:55:07;99208.39;;;9.34;100.00
23899;BME280;20544;50.018;20.010;2023-06-04T01:58:31;99209.06;;;9.36;100.00
23899;BME280;20544;50.018;20.010;2023-06-04T02:01:56;99201.09;;;9.28;100.00
23899;BME280;20544;50.018;20.010;2023-06-04T02:05:21;99206.56;;;9.27;100.00
23899;BME280;20544;50.018;20.010;2023-06-04T02:08:39;99199.61;;;9.17;100.00
23899;BME280;20544;50.018;20.010;2023-06-04T02:15:17;99201.89;;;9.04;100.00
23899;BME280;20544;50.018;20.010;2023-06-04T02:18:43;99202.57;;;9.06;100.00
23899;BME280;20544;50.018;20.010;2023-06-04T02:22:20;99201.08;;;9.03;100.00
23899;BME280;20544;50.018;20.010;2023-06-04T02:25:42;99196.91;;;8.93;100.00
23899;BME280;20544;50.018;20.010;2023-06-04T02:29:20;99194.09;;;8.94;100.00
23899;BME280;20544;50.018;20.010;2023-06-04T02:32:55;99198.23;;;8.97;100.00
23899;BME280;20544;50.018;20.010;2023-06-04T02:36:21;99205.35;;;8.96;100.00
23899;BME280;20544;50.018;20.010;2023-06-04T02:39:45;99205.99;;;8.90;100.00
23899;BME280;20544;50.018;20.010;2023-06-04T02:43:10;99205.01;;;8.91;100.00
23899;BME280;20544;50.018;20.010;2023-06-04T02:46:29;99206.80;;;8.82;100.00
23899;BME280;20544;50.018;20.010;2023-06-04T02:49:47;99197.84;;;8.75;100.00
23899;BME280;20544;50.018;20.010;2023-06-04T02:53:09;99204.42;;;8.71;100.00
23899;BME280;20544;50.018;20.010;2023-06-04T02:56:26;99203.44;;;8.72;100.00
23899;BME280;20544;50.018;20.010;2023-06-04T02:59:43;99199.98;;;8.80;100.00
23899;BME280;20544;50.018;20.010;2023-06-04T03:03:01;99197.20;;;8.81;100.00
23899;BME280;20544;50.018;20.010;2023-06-04T03:06:22;99199.97;;;8.71;100.00
23899;BME280;20544;50.018;20.010;2023-06-04T03:09:42;99201.64;;;8.72;100.00
23899;BME280;20544;50.018;20.010;2023-06-04T03:13:00;99200.16;;;8.78;100.00
23899;BME280;20544;50.018;20.010;2023-06-04T03:16:16;99202.97;;;8.77;100.00
23899;BME280;20544;50.018;20.010;2023-06-04T03:19:33;99202.16;;;8.76;100.00
23899;BME280;20544;50.018;20.010;2023-06-04T03:22:51;99206.76;;;8.74;100.00
23899;BME280;20544;50.018;20.010;2023-06-04T03:26:09;99210.51;;;8.63;100.00
23899;BME280;20544;50.018;20.010;2023-06-04T03:29:26;99214.00;;;8.64;100.00
23899;BME280;20544;50.018;20.010;2023-06-04T03:32:44;99211.53;;;8.70;100.00
23899;BME280;20544;50.018;20.010;2023-06-04T03:36:01;99210.67;;;8.62;100.00
23899;BME280;20544;50.018;20.010;2023-06-04T03:39:20;99225.56;;;8.63;100.00
23899;BME280;20544;50.018;20.010;2023-06-04T03:42:38;99220.16;;;8.72;100.00
23899;BME280;20544;50.018;20.010;2023-06-04T03:45:57;99228.90;;;8.73;100.00
23899;BME280;20544;50.018;20.010;2023-06-04T03:49:15;99226.09;;;8.74;100.00
23899;BME280;20544;50.018;20.010;2023-06-04T03:52:33;99231.24;;;8.76;100.00
23899;BME280;20544;50.018;20.010;2023-06-04T03:55:50;99232.23;;;8.83;100.00
23899;BME280;20544;50.018;20.010;2023-06-04T03:59:07;99223.48;;;8.83;100.00
23899;BME280;20544;50.018;20.010;2023-06-04T04:02:24;99232.61;;;8.88;100.00
23899;BME280;20544;50.018;20.010;2023-06-04T04:05:44;99226.98;;;8.92;100.00
23899;BME280;20544;50.018;20.010;2023-06-04T04:09:01;99229.81;;;8.98;100.00
23899;BME280;20544;50.018;20.010;2023-06-04T04:12:18;99233.30;;;9.07;100.00
23899;BME280;20544;50.018;20.010;2023-06-04T04:15:41;99229.03;;;9.14;100.00
23899;BME280;20544;50.018;20.010;2023-06-04T04:19:14;99228.73;;;9.26;100.00
23899;BME280;20544;50.018;20.010;2023-06-04T04:22:46;99221.80;;;9.33;100.00
23899;BME280;20544;50.018;20.010;2023-06-04T04:26:24;99224.61;;;9.31;100.00
23899;BME280;20544;50.018;20.010;2023-06-04T04:29:50;99221.82;;;9.41;100.00
23899;BME280;20544;50.018;20.010;2023-06-04T04:33:19;99218.83;;;9.44;100.00
23899;BME280;20544;50.018;20.010;2023-06-04T04:36:37;99215.86;;;9.55;100.00
23899;BME280;20544;50.018;20.010;2023-06-04T04:39:57;99219.52;;;9.71;100.00
23899;BME280;20544;50.018;20.010;2023-06-04T04:43:33;99221.52;;;9.77;100.00
23899;BME280;20544;50.018;20.010;2023-06-04T04:47:01;99220.98;;;9.82;100.00
23899;BME280;20544;50.018;20.010;2023-06-04T04:50:28;99224.81;;;9.87;100.00
23899;BME280;20544;50.018;20.010;2023-06-04T04:54:55;99228.95;;;9.98;100.00
23899;BME280;20544;50.018;20.010;2023-06-04T04:58:46;99230.41;;;10.09;100.00
23899;BME280;20544;50.018;20.010;2023-06-04T05:02:06;99239.70;;;10.13;100.00
23899;BME280;20544;50.018;20.010;2023-06-04T05:05:28;99242.00;;;10.16;100.00
23899;BME280;20544;50.018;20.010;2023-06-04T05:08:50;99239.17;;;10.26;100.00
23899;BME280;20544;50.018;20.010;2023-06-04T05:12:07;99245.14;;;10.36;100.00
23899;BME280;20544;50.018;20.010;2023-06-04T05:15:24;99256.56;;;10.45;100.00
23899;BME280;20544;50.018;20.010;2023-06-04T05:18:43;99258.52;;;10.60;100.00
23899;BME280;20544;50.018;20.010;2023-06-04T05:22:02;99254.51;;;10.72;100.00
23899;BME280;20544;50.018;20.010;2023-06-04T05:25:20;99256.78;;;10.83;100.00
23899;BME280;20544;50.018;20.010;2023-06-04T05:28:44;99256.22;;;10.96;100.00
23899;BME280;20544;50.018;20.010;2023-06-04T05:32:10;99254.69;;;11.10;100.00
23899;BME280;20544;50.018;20.010;2023-06-04T05:35:41;99253.59;;;11.28;100.00
23899;BME280;20544;50.018;20.010;2023-06-04T05:38:58;99257.95;;;11.44;100.00
23899;BME280;20544;50.018;20.010;2023-06-04T05:42:17;99254.38;;;11.60;100.00
23899;BME280;20544;50.018;20.010;2023-06-04T05:45:38;99248.64;;;11.71;100.00
23899;BME280;20544;50.018;20.010;2023-06-04T05:48:58;99253.72;;;11.81;100.00
23899;BME280;20544;50.018;20.010;2023-06-04T05:52:41;99253.29;;;11.92;100.00
23899;BME280;20544;50.018;20.010;2023-06-04T05:56:13;99257.20;;;12.05;100.00
23899;BME280;20544;50.018;20.010;2023-06-04T05:59:42;99255.67;;;12.10;100.00
23899;BME280;20544;50.018;20.010;2023-06-04T06:03:00;99255.52;;;12.27;100.00
23899;BME280;20544;50.018;20.010;2023-06-04T06:06:25;99264.42;;;12.34;100.00
23899;BME280;20544;50.018;20.010;2023-06-04T06:09:48;99264.52;;;12.56;100.00
23899;BME280;20544;50.018;20.010;2023-06-04T06:13:10;99268.30;;;12.76;100.00
23899;BME280;20544;50.018;20.010;2023-06-04T06:16:32;99268.76;;;12.80;100.00
23899;BME280;20544;50.018;20.010;2023-06-04T06:19:50;99266.09;;;12.95;100.00
23899;BME280;20544;50.018;20.010;2023-06-04T06:23:25;99267.07;;;13.09;100.00
23899;BME280;20544;50.018;20.010;2023-06-04T06:26:44;99261.52;;;13.25;100.00
23899;BME280;20544;50.018;20.010;2023-06-04T06:30:02;99264.37;;;13.39;100.00
23899;BME280;20544;50.018;20.010;2023-06-04T06:33:22;99260.20;;;13.51;100.00
23899;BME280;20544;50.018;20.010;2023-06-04T06:36:40;99275.43;;;13.57;100.00
23899;BME280;20544;50.018;20.010;2023-06-04T06:39:59;99271.45;;;13.68;100.00
23899;BME280;20544;50.018;20.010;2023-06-04T06:43:16;99264.39;;;13.82;100.00
23899;BME280;20544;50.018;20.010;2023-06-04T06:46:35;99275.19;;;13.96;100.00
23899;BME280;20544;50.018;20.010;2023-06-04T06:49:52;99269.38;;;14.14;100.00
23899;BME280;20544;50.018;20.010;2023-06-04T06:53:11;99273.16;;;14.26;100.00
23899;BME280;20544;50.018;20.010;2023-06-04T06:56:28;99273.88;;;14.42;100.00
23899;BME280;20544;50.018;20.010;2023-06-04T06:59:45;99274.98;;;14.54;100.00
23899;BME280;20544;50.018;20.010;2023-06-04T07:03:03;99278.15;;;14.64;100.00
23899;BME280;20544;50.018;20.010;2023-06-04T07:06:20;99279.07;;;14.78;100.00
23899;BME280;20544;50.018;20.010;2023-06-04T07:09:38;99273.38;;;14.88;100.00
23899;BME280;20544;50.018;20.010;2023-06-04T07:12:55;99286.55;;;14.96;100.00
23899;BME280;20544;50.018;20.010;2023-06-04T07:16:23;99280.05;;;15.12;100.00
23899;BME280;20544;50.018;20.010;2023-06-04T07:19:44;99287.91;;;15.27;100.00
23899;BME280;20544;50.018;20.010;2023-06-04T07:23:02;99274.00;;;15.45;100.00
23899;BME280;20544;50.018;20.010;2023-06-04T07:26:19;99278.55;;;15.65;100.00
23899;BME280;20544;50.018;20.010;2023-06-04T07:29:39;99276.16;;;15.90;100.00
23899;BME280;20544;50.018;20.010;2023-06-04T07:32:57;99275.55;;;16.22;100.00
23899;BME280;20544;50.018;20.010;2023-06-04T07:36:14;99282.73;;;16.34;100.00
23899;BME280;20544;50.018;20.010;2023-06-04T07:39:31;99278.57;;;16.65;100.00
23899;BME280;20544;50.018;20.010;2023-06-04T07:42:49;99283.06;;;16.78;100.00
23899;BME280;20544;50.018;20.010;2023-06-04T07:46:06;99282.39;;;17.10;100.00
23899;BME280;20544;50.018;20.010;2023-06-04T07:49:23;99293.16;;;17.42;100.00
23899;BME280;20544;50.018;20.010;2023-06-04T07:52:40;99281.76;;;17.85;100.00
23899;BME280;20544;50.018;20.010;2023-06-04T07:56:02;99290.67;;;18.36;100.00
23899;BME280;20544;50.018;20.010;2023-06-04T07:59:21;99297.17;;;19.10;100.00
23899;BME280;20544;50.018;20.010;2023-06-04T08:02:44;99294.84;;;19.32;100.00
23899;BME280;20544;50.018;20.010;2023-06-04T08:06:30;99285.00;;;19.86;100.00
23899;BME280;20544;50.018;20.010;2023-06-04T08:09:59;99300.95;;;20.12;100.00
23899;BME280;20544;50.018;20.010;2023-06-04T08:13:18;99305.18;;;20.67;100.00
23899;BME280;20544;50.018;20.010;2023-06-04T08:16:35;99305.67;;;20.88;100.00
23899;BME280;20544;50.018;20.010;2023-06-04T08:19:52;99304.52;;;20.72;98.43
23899;BME280;20544;50.018;20.010;2023-06-04T08:23:10;99305.23;;;21.20;98.04
23899;BME280;20544;50.018;20.010;2023-06-04T08:26:27;99311.70;;;21.19;98.28
23899;BME280;20544;50.018;20.010;2023-06-04T08:29:43;99305.57;;;21.23;97.99
23899;BME280;20544;50.018;20.010;2023-06-04T08:33:01;99313.64;;;21.35;97.15
23899;BME280;20544;50.018;20.010;2023-06-04T08:36:19;99318.01;;;21.65;96.96
23899;BME280;20544;50.018;20.010;2023-06-04T08:39:36;99314.31;;;22.17;95.13
23899;BME280;20544;50.018;20.010;2023-06-04T08:42:53;99318.73;;;22.40;94.93
23899;BME280;20544;50.018;20.010;2023-06-04T08:46:10;99319.86;;;22.61;94.01
23899;BME280;20544;50.018;20.010;2023-06-04T08:49:27;99317.27;;;22.89;93.49
23899;BME280;20544;50.018;20.010;2023-06-04T08:52:49;99317.10;;;22.96;92.95
23899;BME280;20544;50.018;20.010;2023-06-04T08:56:08;99317.35;;;22.38;92.50
23899;BME280;20544;50.018;20.010;2023-06-04T08:59:26;99306.93;;;22.64;92.31
23899;BME280;20544;50.018;20.010;2023-06-04T09:02:43;99314.02;;;22.87;94.76
23899;BME280;20544;50.018;20.010;2023-06-04T09:06:01;99319.64;;;22.85;91.64
23899;BME280;20544;50.018;20.010;2023-06-04T09:09:19;99316.94;;;22.85;92.25
23899;BME280;20544;50.018;20.010;2023-06-04T09:12:42;99320.13;;;23.21;92.39
23899;BME280;20544;50.018;20.010;2023-06-04T09:16:08;99316.97;;;23.52;90.77
23899;BME280;20544;50.018;20.010;2023-06-04T09:19:25;99319.88;;;24.00;90.60
23899;BME280;20544;50.018;20.010;2023-06-04T09:22:41;99326.75;;;24.08;90.60
23899;BME280;20544;50.018;20.010;2023-06-04T09:25:58;99322.08;;;24.35;91.37
23899;BME280;20544;50.018;20.010;2023-06-04T09:29:26;99325.59;;;24.36;89.92
23899;BME280;20544;50.018;20.010;2023-06-04T09:32:46;99328.39;;;24.46;89.55
23899;BME280;20544;50.018;20.010;2023-06-04T09:36:04;99332.58;;;23.94;90.33
23899;BME280;20544;50.018;20.010;2023-06-04T09:39:23;99319.34;;;23.98;90.84
23899;BME280;20544;50.018;20.010;2023-06-04T09:42:46;99319.84;;;23.95;90.42
23899;BME280;20544;50.018;20.010;2023-06-04T09:46:14;99311.67;;;24.22;90.25
23899;BME280;20544;50.018;20.010;2023-06-04T09:49:41;99315.62;;;24.42;90.33
23899;BME280;20544;50.018;20.010;2023-06-04T09:53:00;99314.75;;;24.36;94.59
23899;BME280;20544;50.018;20.010;2023-06-04T09:56:21;99316.98;;;24.44;90.07
23899;BME280;20544;50.018;20.010;2023-06-04T09:59:39;99309.23;;;24.63;91.13
23899;BME280;20544;50.018;20.010;2023-06-04T10:02:58;99306.80;;;24.62;89.99
23899;BME280;20544;50.018;20.010;2023-06-04T10:06:16;99306.88;;;24.34;89.44
23899;BME280;20544;50.018;20.010;2023-06-04T10:09:36;99318.36;;;24.09;90.29
23899;BME280;20544;50.018;20.010;2023-06-04T10:13:00;99311.88;;;23.55;90.03
23899;BME280;20544;50.018;20.010;2023-06-04T10:16:18;99309.20;;;23.88;92.07
23899;BME280;20544;50.018;20.010;2023-06-04T10:19:39;99310.49;;;24.08;90.67
23899;BME280;20544;50.018;20.010;2023-06-04T10:23:04;99312.78;;;23.94;89.21
23899;BME280;20544;50.018;20.010;2023-06-04T10:26:24;99313.66;;;23.72;89.67
23899;BME280;20544;50.018;20.010;2023-06-04T10:29:41;99307.97;;;23.73;90.74
23899;BME280;20544;50.018;20.010;2023-06-04T10:32:59;99310.28;;;23.59;89.55
23899;BME280;20544;50.018;20.010;2023-06-04T10:36:20;99311.61;;;23.84;90.13
23899;BME280;20544;50.018;20.010;2023-06-04T10:39:38;99304.77;;;23.77;90.83
23899;BME280;20544;50.018;20.010;2023-06-04T10:42:54;99306.55;;;23.66;90.48
23899;BME280;20544;50.018;20.010;2023-06-04T10:46:15;99301.52;;;23.25;88.61
23899;BME280;20544;50.018;20.010;2023-06-04T10:49:33;99297.92;;;23.41;90.56
23899;BME280;20544;50.018;20.010;2023-06-04T10:52:57;99294.75;;;23.50;89.19
23899;BME280;20544;50.018;20.010;2023-06-04T10:56:14;99289.38;;;23.55;90.48
23899;BME280;20544;50.018;20.010;2023-06-04T10:59:41;99288.12;;;23.35;91.34
23899;BME280;20544;50.018;20.010;2023-06-04T11:02:58;99286.05;;;23.48;92.15
23899;BME280;20544;50.018;20.010;2023-06-04T11:06:21;99283.39;;;23.03;88.59
23899;BME280;20544;50.018;20.010;2023-06-04T11:09:48;99290.55;;;23.15;90.79
23899;BME280;20544;50.018;20.010;2023-06-04T11:13:06;99284.11;;;22.76;90.92
23899;BME280;20544;50.018;20.010;2023-06-04T11:16:23;99279.58;;;22.60;91.61
23899;BME280;20544;50.018;20.010;2023-06-04T11:19:40;99279.67;;;22.31;90.72
23899;BME280;20544;50.018;20.010;2023-06-04T11:22:58;99275.51;;;22.40;92.26
23899;BME280;20544;50.018;20.010;2023-06-04T11:26:15;99285.33;;;22.46;91.38
23899;BME280;20544;50.018;20.010;2023-06-04T11:29:34;99283.45;;;22.47;93.63
23899;BME280;20544;50.018;20.010;2023-06-04T11:32:51;99291.17;;;22.38;90.60
23899;BME280;20544;50.018;20.010;2023-06-04T11:36:25;99281.14;;;22.22;91.72
23899;BME280;20544;50.018;20.010;2023-06-04T11:39:43;99278.55;;;22.27;92.28
23899;BME280;20544;50.018;20.010;2023-06-04T11:43:00;99276.42;;;22.12;91.39
23899;BME280;20544;50.018;20.010;2023-06-04T11:46:16;99273.97;;;21.93;92.46
23899;BME280;20544;50.018;20.010;2023-06-04T11:49:36;99269.77;;;21.86;91.34
23899;BME280;20544;50.018;20.010;2023-06-04T11:52:54;99262.00;;;21.89;92.29
23899;BME280;20544;50.018;20.010;2023-06-04T11:56:11;99257.41;;;21.73;92.83
23899;BME280;20544;50.018;20.010;2023-06-04T11:59:28;99262.81;;;21.44;92.36
23899;BME280;20544;50.018;20.010;2023-06-04T12:02:52;99266.63;;;21.31;92.26
23899;BME280;20544;50.018;20.010;2023-06-04T12:06:15;99251.94;;;21.10;93.17
23899;BME280;20544;50.018;20.010;2023-06-04T12:09:34;99253.95;;;21.03;93.47
23899;BME280;20544;50.018;20.010;2023-06-04T12:12:55;99244.83;;;20.92;94.09
23899;BME280;20544;50.018;20.010;2023-06-04T12:16:15;99247.77;;;20.90;92.30
23899;BME280;20544;50.018;20.010;2023-06-04T12:19:32;99246.22;;;20.94;93.25
23899;BME280;20544;50.018;20.010;2023-06-04T12:22:51;99252.20;;;20.96;93.92
23899;BME280;20544;50.018;20.010;2023-06-04T12:26:07;99252.95;;;20.80;93.16
23899;BME280;20544;50.018;20.010;2023-06-04T12:29:25;99249.81;;;20.71;93.63
23899;BME280;20544;50.018;20.010;2023-06-04T12:32:41;99250.27;;;20.80;93.70
23899;BME280;20544;50.018;20.010;2023-06-04T12:36:00;99241.69;;;20.83;93.17
23899;BME280;20544;50.018;20.010;2023-06-04T12:39:17;99245.78;;;20.85;94.59
23899;BME280;20544;50.018;20.010;2023-06-04T12:42:33;99239.68;;;20.90;93.36
23899;BME280;20544;50.018;20.010;2023-06-04T12:45:50;99243.58;;;20.82;93.12
23899;BME280;20544;50.018;20.010;2023-06-04T12:49:06;99244.97;;;20.85;93.59
23899;BME280;20544;50.018;20.010;2023-06-04T12:52:23;99244.03;;;20.79;92.85
23899;BME280;20544;50.018;20.010;2023-06-04T12:55:40;99241.83;;;20.76;92.55
23899;BME280;20544;50.018;20.010;2023-06-04T12:58:56;99240.86;;;20.71;92.93
23899;BME280;20544;50.018;20.010;2023-06-04T13:02:13;99246.14;;;20.65;93.58
23899;BME280;20544;50.018;20.010;2023-06-04T13:05:31;99239.81;;;20.60;93.55
23899;BME280;20544;50.018;20.010;2023-06-04T13:08:57;99242.05;;;20.63;93.78
23899;BME280;20544;50.018;20.010;2023-06-04T13:12:17;99233.02;;;20.57;93.51
23899;BME280;20544;50.018;20.010;2023-06-04T13:15:33;99227.28;;;20.65;94.37
23899;BME280;20544;50.018;20.010;2023-06-04T13:18:50;99223.54;;;20.66;93.42
23899;BME280;20544;50.018;20.010;2023-06-04T13:22:06;99223.18;;;20.75;94.14
23899;BME280;20544;50.018;20.010;2023-06-04T13:25:23;99228.81;;;20.73;94.16
23899;BME280;20544;50.018;20.010;2023-06-04T13:28:42;99231.86;;;20.65;92.76
23899;BME280;20544;50.018;20.010;2023-06-04T13:31:58;99229.38;;;20.63;93.15
23899;BME280;20544;50.018;20.010;2023-06-04T13:35:15;99231.13;;;20.69;94.25
23899;BME280;20544;50.018;20.010;2023-06-04T13:38:32;99228.44;;;20.69;93.29
23899;BME280;20544;50.018;20.010;2023-06-04T13:41:50;99228.01;;;20.73;93.05
23899;BME280;20544;50.018;20.010;2023-06-04T13:45:08;99231.27;;;20.75;93.21
23899;BME280;20544;50.018;20.010;2023-06-04T13:48:26;99225.64;;;20.64;92.38
23899;BME280;20544;50.018;20.010;2023-06-04T13:51:43;99221.89;;;20.65;93.28
23899;BME280;20544;50.018;20.010;2023-06-04T13:55:00;99217.31;;;20.66;92.18
23899;BME280;20544;50.018;20.010;2023-06-04T13:58:17;99205.73;;;20.65;92.77
23899;BME280;20544;50.018;20.010;2023-06-04T14:01:36;99201.30;;;20.71;92.95
23899;BME280;20544;50.018;20.010;2023-06-04T14:04:54;99204.00;;;20.71;92.28
23899;BME280;20544;50.018;20.010;2023-06-04T14:08:11;99201.86;;;20.73;92.92
23899;BME280;20544;50.018;20.010;2023-06-04T14:11:29;99201.41;;;20.76;93.76
23899;BME280;20544;50.018;20.010;2023-06-04T14:14:46;99193.07;;;20.78;95.52
23899;BME280;20544;50.018;20.010;2023-06-04T14:18:04;99191.77;;;20.80;94.28
23899;BME280;20544;50.018;20.010;2023-06-04T14:21:21;99193.41;;;20.81;94.56
23899;BME280;20544;50.018;20.010;2023-06-04T14:24:39;99196.67;;;20.83;94.68
23899;BME280;20544;50.018;20.010;2023-06-04T14:27:56;99194.81;;;20.84;94.19
23899;BME280;20544;50.018;20.010;2023-06-04T14:31:12;99195.87;;;20.83;95.04
23899;BME280;20544;50.018;20.010;2023-06-04T14:34:29;99188.02;;;20.81;94.70
23899;BME280;20544;50.018;20.010;2023-06-04T14:37:47;99182.30;;;20.78;94.44
23899;BME280;20544;50.018;20.010;2023-06-04T14:41:03;99192.48;;;20.76;94.34
23899;BME280;20544;50.018;20.010;2023-06-04T14:44:21;99177.86;;;20.72;93.02
23899;BME280;20544;50.018;20.010;2023-06-04T14:47:38;99184.76;;;20.67;92.63
23899;BME280;20544;50.018;20.010;2023-06-04T14:50:55;99171.50;;;20.66;93.07
23899;BME280;20544;50.018;20.010;2023-06-04T14:54:12;99181.47;;;20.65;92.38
23899;BME280;20544;50.018;20.010;2023-06-04T14:57:28;99178.53;;;20.67;93.94
23899;BME280;20544;50.018;20.010;2023-06-04T15:00:47;99170.70;;;20.65;94.94
23899;BME280;20544;50.018;20.010;2023-06-04T15:04:12;99169.77;;;20.60;92.72
23899;BME280;20544;50.018;20.010;2023-06-04T15:07:51;99170.72;;;20.53;93.25
23899;BME280;20544;50.018;20.010;2023-06-04T15:11:25;99171.65;;;20.59;93.15
23899;BME280;20544;50.018;20.010;2023-06-04T15:14:59;99167.06;;;20.60;93.89
23899;BME280;20544;50.018;20.010;2023-06-04T15:18:48;99162.76;;;20.59;94.40
23899;BME280;20544;50.018;20.010;2023-06-04T15:22:29;99171.30;;;20.56;94.05
23899;BME280;20544;50.018;20.010;2023-06-04T15:25:51;99166.16;;;20.54;93.35
23899;BME280;20544;50.018;20.010;2023-06-04T15:30:04;99165.01;;;20.50;93.08
23899;BME280;20544;50.018;20.010;2023-06-04T15:40:16;99158.22;;;20.47;92.59
23899;BME280;20544;50.018;20.010;2023-06-04T15:48:59;99153.40;;;20.49;91.76
23899;BME280;20544;50.018;20.010;2023-06-04T16:11:23;99156.58;;;20.46;95.18
23899;BME280;20544;50.018;20.010;2023-06-04T16:14:49;99147.80;;;20.39;93.36
23899;BME280;20544;50.018;20.010;2023-06-04T16:18:09;99152.14;;;20.40;95.04
23899;BME280;20544;50.018;20.010;2023-06-04T16:21:34;99147.22;;;20.37;94.19
23899;BME280;20544;50.018;20.010;2023-06-04T16:50:28;99167.61;;;20.21;92.28
23899;BME280;20544;50.018;20.010;2023-06-04T16:54:00;99171.38;;;20.20;93.73
23899;BME280;20544;50.018;20.010;2023-06-04T16:57:18;99165.86;;;20.15;94.83
23899;BME280;20544;50.018;20.010;2023-06-04T17:00:38;99167.98;;;20.13;94.35
23899;BME280;20544;50.018;20.010;2023-06-04T17:03:56;99165.75;;;20.10;93.93
23899;BME280;20544;50.018;20.010;2023-06-04T17:07:13;99164.34;;;20.07;93.19
23899;BME280;20544;50.018;20.010;2023-06-04T17:10:32;99174.88;;;20.09;93.73
23899;BME280;20544;50.018;20.010;2023-06-04T17:13:49;99170.78;;;20.06;92.79
23899;BME280;20544;50.018;20.010;2023-06-04T17:17:05;99179.09;;;20.04;92.37
23899;BME280;20544;50.018;20.010;2023-06-04T17:20:22;99173.71;;;20.04;91.60
23899;BME280;20544;50.018;20.010;2023-06-04T17:23:39;99180.98;;;20.04;92.07
23899;BME280;20544;50.018;20.010;2023-06-04T17:26:58;99184.72;;;20.03;92.70
23899;BME280;20544;50.018;20.010;2023-06-04T17:30:15;99182.48;;;20.00;92.49
23899;BME280;20544;50.018;20.010;2023-06-04T17:33:39;99185.17;;;20.00;92.69
23899;BME280;20544;50.018;20.010;2023-06-04T17:36:59;99181.32;;;19.96;92.69
23899;BME280;20544;50.018;20.010;2023-06-04T17:40:17;99185.06;;;19.95;92.66
23899;BME280;20544;50.018;20.010;2023-06-04T17:43:35;99187.19;;;19.93;92.85
23899;BME280;20544;50.018;20.010;2023-06-04T17:46:53;99182.25;;;19.90;93.42
23899;BME280;20544;50.018;20.010;2023-06-04T17:50:13;99180.05;;;19.86;94.08
23899;BME280;20544;50.018;20.010;2023-06-04T17:53:41;99178.81;;;19.82;93.63
23899;BME280;20544;50.018;20.010;2023-06-04T17:56:58;99184.69;;;19.79;93.49
23899;BME280;20544;50.018;20.010;2023-06-04T18:00:16;99176.25;;;19.76;97.42
23899;BME280;20544;50.018;20.010;2023-06-04T18:03:35;99179.06;;;19.69;100.00
23899;BME280;20544;50.018;20.010;2023-06-04T18:06:53;99177.27;;;19.51;100.00
23899;BME280;20544;50.018;20.010;2023-06-04T18:10:14;99176.97;;;19.29;100.00
23899;BME280;20544;50.018;20.010;2023-06-04T18:13:34;99175.98;;;19.11;100.00
23899;BME280;20544;50.018;20.010;2023-06-04T18:16:51;99177.27;;;18.90;100.00
23899;BME280;20544;50.018;20.010;2023-06-04T18:20:10;99179.60;;;18.68;100.00
23899;BME280;20544;50.018;20.010;2023-06-04T18:23:27;99183.56;;;18.47;100.00
23899;BME280;20544;50.018;20.010;2023-06-04T18:26:44;99176.72;;;18.32;100.00
23899;BME280;20544;50.018;20.010;2023-06-04T18:30:03;99181.18;;;18.20;100.00